Time;durP1;ratioP1;P1;durP2;ratioP2;P2;SDS_P1;SDS_P2;PMS_P1;PMS_P2;Temp;Humidity;BMP_temperature;BMP_pressure;BME280_temperature;BME280_humidity;BME280_pressure;Samples;Min_cycle;Max_cycle;Signal;HPM_P1;HPM_P2
2023/01/26 00:02:19;;;;;;;28.67;27.07;;;20.20;45.30;;;;;;5116414;28;20449;-50
2023/01/26 00:04:46;;;;;;;28.20;26.40;;;20.20;45.40;;;;;;5114084;28;20448;-53
2023/01/26 00:07:13;;;;;;;29.43;27.50;;;20.20;45.40;;;;;;5115535;28;20922;-53
2023/01/26 00:09:40;;;;;;;28.80;26.90;;;20.20;45.40;;;;;;5103660;28;20542;-52
2023/01/26 00:12:08;;;;;;;29.00;27.30;;;20.20;45.40;;;;;;5095548;28;21035;-51
2023/01/26 00:14:49;;;;;;;29.20;27.30;;;20.20;45.40;;;;;;5094724;28;20533;-52
2023/01/26 00:17:24;;;;;;;27.90;26.30;;;20.20;45.40;;;;;;5094974;28;20469;-52
2023/01/26 00:19:53;;;;;;;29.53;27.83;;;20.20;45.40;;;;;;5109192;28;20859;-52
2023/01/26 00:22:19;;;;;;;30.03;28.23;;;20.20;45.40;;;;;;5115689;28;20442;-51
2023/01/26 00:24:46;;;;;;;27.60;25.80;;;20.20;45.40;;;;;;5115468;28;20562;-51
2023/01/26 00:27:14;;;;;;;28.53;26.83;;;20.20;45.40;;;;;;5115153;28;20552;-52
2023/01/26 00:29:41;;;;;;;28.67;26.93;;;20.20;45.40;;;;;;5102485;28;20535;-52
2023/01/26 00:32:08;;;;;;;28.70;26.80;;;20.20;45.40;;;;;;5094773;28;20998;-51
2023/01/26 00:34:35;;;;;;;29.37;27.57;;;20.20;45.40;;;;;;5095029;28;20514;-51
2023/01/26 00:37:02;;;;;;;29.10;27.40;;;20.20;45.40;;;;;;5095377;28;20534;-50
2023/01/26 00:39:29;;;;;;;29.47;27.57;;;20.20;45.40;;;;;;5096895;28;20537;-53
2023/01/26 00:42:08;;;;;;;29.13;27.23;;;20.20;45.40;;;;;;5095158;28;20529;-52
2023/01/26 00:44:38;;;;;;;28.60;26.90;;;20.20;45.40;;;;;;5094443;28;20438;-52
2023/01/26 00:47:05;;;;;;;28.10;26.40;;;20.20;45.40;;;;;;5094629;28;20478;-51
2023/01/26 00:49:32;;;;;;;29.57;27.80;;;20.20;45.40;;;;;;5103514;28;20438;-51
2023/01/26 00:51:59;;;;;;;29.67;27.77;;;20.20;45.40;;;;;;5113304;28;20452;-52
2023/01/26 00:54:26;;;;;;;27.87;26.07;;;20.10;45.30;;;;;;5114501;28;20456;-51
2023/01/26 00:56:53;;;;;;;28.00;26.43;;;20.20;45.50;;;;;;5116048;28;20465;-52
2023/01/26 00:59:20;;;;;;;30.50;28.40;;;20.10;45.40;;;;;;5107666;28;20439;-52
2023/01/26 01:01:48;;;;;;;30.13;28.13;;;20.10;45.40;;;;;;5094270;28;20451;-51
2023/01/26 01:04:16;;;;;;;29.53;27.57;;;20.20;45.50;;;;;;5093445;28;20446;-52
2023/01/26 01:06:43;;;;;;;27.90;26.20;;;20.10;45.40;;;;;;5094071;28;20468;-51
2023/01/26 01:09:10;;;;;;;27.63;26.03;;;20.20;45.50;;;;;;5101414;28;20450;-52
2023/01/26 01:11:37;;;;;;;28.60;27.00;;;20.10;45.40;;;;;;5115049;28;20441;-50
2023/01/26 01:14:03;;;;;;;30.33;28.23;;;20.20;45.50;;;;;;5114449;28;21045;-51
2023/01/26 01:16:30;;;;;;;30.03;28.17;;;20.10;45.50;;;;;;5114265;28;20549;-51
2023/01/26 01:18:59;;;;;;;28.67;26.90;;;20.10;45.50;;;;;;5095680;28;20534;-50
2023/01/26 01:21:25;;;;;;;29.10;27.40;;;20.10;45.50;;;;;;5094629;28;20533;-53
2023/01/26 01:23:52;;;;;;;28.57;26.77;;;20.10;45.50;;;;;;5094718;28;20438;-52
2023/01/26 01:26:19;;;;;;;30.57;28.70;;;20.10;45.50;;;;;;5105204;28;20559;-52
2023/01/26 01:28:46;;;;;;;30.17;28.37;;;20.10;45.50;;;;;;5114242;28;20524;-51
2023/01/26 01:31:15;;;;;;;29.27;27.57;;;20.20;45.60;;;;;;5113948;28;20532;-51
2023/01/26 01:33:42;;;;;;;29.43;27.63;;;20.10;45.50;;;;;;5114253;28;20503;-52
2023/01/26 01:36:12;;;;;;;28.00;26.30;;;20.10;45.50;;;;;;5105202;28;20470;-51
2023/01/26 01:38:39;;;;;;;29.40;27.50;;;20.10;45.50;;;;;;5094399;28;20446;-53
2023/01/26 01:41:06;;;;;;;28.93;27.03;;;20.10;45.50;;;;;;5093661;28;20441;-53
2023/01/26 01:43:33;;;;;;;30.10;28.30;;;20.10;45.60;;;;;;5093344;28;20435;-50
2023/01/26 01:46:01;;;;;;;28.90;27.20;;;20.10;46.10;;;;;;5100297;28;20444;-51
2023/01/26 01:48:35;;;;;;;30.20;28.17;;;20.10;45.50;;;;;;5112940;28;20520;-51
2023/01/26 01:51:06;;;;;;;28.17;26.50;;;20.10;45.60;;;;;;5112261;28;20446;-52
2023/01/26 01:53:39;;;;;;;28.70;26.90;;;20.10;45.50;;;;;;5112960;28;20477;-52
2023/01/26 01:56:20;;;;;;;29.17;27.23;;;20.10;45.50;;;;;;5106502;28;20469;-51
2023/01/26 01:58:48;;;;;;;27.67;26.07;;;20.10;45.50;;;;;;5094740;28;20504;-51
2023/01/26 02:01:15;;;;;;;30.07;28.07;;;20.10;45.50;;;;;;5092626;28;20442;-52
2023/01/26 02:03:44;;;;;;;27.87;26.00;;;20.10;45.60;;;;;;5092606;28;20931;-52
2023/01/26 02:06:14;;;;;;;29.03;27.03;;;20.10;45.60;;;;;;5092561;28;20470;-51
2023/01/26 02:08:46;;;;;;;27.30;25.70;;;20.10;45.60;;;;;;5093199;28;20962;-52
2023/01/26 02:11:16;;;;;;;28.20;26.40;;;20.10;45.50;;;;;;5093041;28;20969;-51
2023/01/26 02:13:44;;;;;;;29.57;27.70;;;20.10;45.50;;;;;;5092637;28;20488;-52
2023/01/26 02:16:11;;;;;;;27.83;26.33;;;20.10;45.50;;;;;;5112540;28;20462;-52
2023/01/26 02:18:38;;;;;;;31.30;29.30;;;20.10;45.50;;;;;;5112962;28;20738;-52
2023/01/26 02:21:07;;;;;;;28.87;27.17;;;20.10;45.50;;;;;;5112521;28;20477;-53
2023/01/26 02:23:47;;;;;;;29.37;27.33;;;20.10;45.50;;;;;;5104350;28;20437;-53
2023/01/26 02:26:18;;;;;;;28.40;26.67;;;20.10;45.60;;;;;;5112433;28;20974;-54
2023/01/26 02:28:45;;;;;;;29.13;27.23;;;20.10;45.60;;;;;;5115290;28;20445;-52
2023/01/26 02:31:14;;;;;;;28.93;27.13;;;20.10;45.50;;;;;;5115892;28;20442;-53
2023/01/26 02:33:41;;;;;;;29.47;27.87;;;20.10;45.60;;;;;;5101736;28;20473;-51
2023/01/26 02:36:18;;;;;;;29.93;28.17;;;20.10;45.60;;;;;;5096246;28;20470;-51
2023/01/26 02:38:51;;;;;;;28.50;26.73;;;20.10;45.50;;;;;;5096475;28;20940;-51
2023/01/26 02:44:01;;;;;;;28.30;26.57;;;20.10;45.60;;;;;;5095441;28;20434;-51
2023/01/26 02:46:28;;;;;;;28.30;26.60;;;20.10;45.60;;;;;;5095081;28;20481;-52
2023/01/26 02:51:38;;;;;;;30.37;28.67;;;20.10;45.60;;;;;;5110488;28;20432;-50
2023/01/26 02:54:05;;;;;;;28.97;27.23;;;20.10;45.60;;;;;;5115473;28;20600;-52
2023/01/26 02:56:37;;;;;;;28.40;26.60;;;20.10;45.60;;;;;;5116812;28;20553;-51
2023/01/26 02:59:04;;;;;;;28.47;26.70;;;20.10;45.60;;;;;;5117287;28;20506;-52
2023/01/26 03:01:31;;;;;;;29.07;27.27;;;20.10;45.60;;;;;;5100591;28;20881;-52
2023/01/26 03:03:57;;;;;;;30.30;28.40;;;20.10;45.60;;;;;;5094136;28;20529;-52
2023/01/26 03:06:24;;;;;;;30.70;28.80;;;20.10;45.60;;;;;;5094844;28;21031;-52
2023/01/26 03:08:51;;;;;;;30.47;28.43;;;20.10;45.60;;;;;;5095761;28;20533;-52
2023/01/26 03:11:18;;;;;;;28.57;26.93;;;20.10;45.60;;;;;;5108024;28;20442;-51
2023/01/26 03:13:46;;;;;;;29.93;27.93;;;20.10;45.60;;;;;;5115376;28;20477;-51
2023/01/26 03:16:17;;;;;;;29.23;27.33;;;20.10;45.60;;;;;;5115350;28;20544;-51
2023/01/26 03:29:44;;;;;;;27.47;25.73;;;20.10;45.80;;;;;;5107141;28;20483;-51
2023/01/26 03:32:10;;;;;;;28.70;26.80;;;20.10;45.80;;;;;;5115122;28;20958;-50
2023/01/26 03:34:37;;;;;;;30.50;28.43;;;20.10;45.80;;;;;;5115570;28;20974;-51
2023/01/26 03:37:05;;;;;;;29.60;27.80;;;20.10;45.70;;;;;;5115543;28;20461;-51
2023/01/26 03:56:20;;;;;;;29.23;27.53;;;20.10;45.80;;;;;;5116093;28;20456;-54
2023/01/26 03:58:50;;;;;;;28.47;26.80;;;20.10;45.80;;;;;;5112070;28;20446;-52
2023/01/26 04:01:19;;;;;;;29.37;27.57;;;20.10;45.80;;;;;;5094727;28;21181;-53
2023/01/26 04:09:17;;;;;;;30.10;28.30;;;20.10;45.70;;;;;;5102799;28;20456;-52
2023/01/26 04:11:44;;;;;;;29.70;27.90;;;20.20;45.70;;;;;;5115386;28;20448;-51
2023/01/26 04:22:27;;;;;;;29.67;27.93;;;20.20;45.50;;;;;;5094944;28;20418;-54
2023/01/26 04:24:55;;;;;;;30.13;28.43;;;20.30;45.50;;;;;;5094401;28;20443;-52
2023/01/26 04:27:23;;;;;;;30.53;28.67;;;20.30;45.50;;;;;;5112952;28;21069;-51
2023/01/26 04:29:49;;;;;;;29.40;27.70;;;20.30;45.40;;;;;;5113889;28;20443;-57
2023/01/26 04:32:18;;;;;;;30.80;29.00;;;20.30;45.40;;;;;;5114616;28;20534;-51
2023/01/26 04:34:44;;;;;;;28.77;27.00;;;20.30;45.30;;;;;;5104765;27;20486;-52
2023/01/26 04:37:11;;;;;;;30.50;28.67;;;20.30;45.30;;;;;;5095495;28;20549;-53
2023/01/26 04:39:38;;;;;;;30.33;28.43;;;20.30;45.30;;;;;;5095557;28;20538;-51
2023/01/26 04:42:05;;;;;;;30.07;28.33;;;20.30;45.40;;;;;;5095479;28;20537;-51
2023/01/26 04:44:32;;;;;;;32.00;30.00;;;20.40;45.40;;;;;;5102340;28;20437;-51
2023/01/26 04:46:58;;;;;;;29.17;27.47;;;20.40;45.40;;;;;;5114412;28;21001;-51
2023/01/26 04:49:26;;;;;;;29.43;27.70;;;20.40;45.40;;;;;;5112990;28;20441;-51
2023/01/26 04:51:53;;;;;;;29.10;27.40;;;20.40;45.40;;;;;;5112692;28;20517;-52
2023/01/26 04:54:20;;;;;;;31.23;29.33;;;20.40;45.30;;;;;;5107160;28;20485;-51
2023/01/26 04:56:47;;;;;;;30.30;28.60;;;20.40;45.40;;;;;;5095334;28;20462;-53
2023/01/26 04:59:14;;;;;;;31.37;29.27;;;20.40;45.40;;;;;;5095599;28;20450;-52
2023/01/26 05:01:41;;;;;;;31.50;29.60;;;20.40;45.40;;;;;;5093714;28;20446;-52
2023/01/26 05:04:08;;;;;;;30.90;29.10;;;20.40;45.30;;;;;;5096751;28;20537;-51
2023/01/26 05:06:37;;;;;;;30.20;28.50;;;20.40;45.30;;;;;;5113506;28;20480;-52
2023/01/26 05:09:04;;;;;;;31.80;29.80;;;20.40;45.40;;;;;;5114348;28;20450;-51
2023/01/26 05:11:31;;;;;;;30.67;28.87;;;20.50;45.40;;;;;;5114351;28;20960;-52
2023/01/26 05:13:57;;;;;;;30.27;28.37;;;20.40;45.30;;;;;;5110688;28;20488;-54
2023/01/26 05:16:24;;;;;;;32.20;30.27;;;20.50;45.40;;;;;;5093423;28;20467;-50
2023/01/26 05:18:51;;;;;;;31.57;29.67;;;20.50;45.40;;;;;;5091551;28;20447;-53
2023/01/26 05:21:18;;;;;;;30.47;28.67;;;20.50;45.50;;;;;;5091674;28;20526;-50
2023/01/26 05:23:46;;;;;;;31.90;29.87;;;20.50;45.40;;;;;;5091988;28;20442;-50
2023/01/26 05:26:13;;;;;;;30.60;28.60;;;20.50;45.50;;;;;;5092013;28;20462;-50
2023/01/26 05:28:40;;;;;;;31.27;29.20;;;20.50;45.50;;;;;;5091591;28;20446;-50
2023/01/26 05:31:06;;;;;;;30.90;29.00;;;20.50;45.50;;;;;;5091359;28;20524;-50
2023/01/26 05:33:33;;;;;;;33.77;31.80;;;20.50;45.60;;;;;;5104125;28;20544;-50
2023/01/26 05:36:04;;;;;;;31.77;29.90;;;20.50;45.70;;;;;;5111850;28;20528;-50
2023/01/26 05:38:31;;;;;;;33.10;31.10;;;20.50;45.70;;;;;;5111924;28;20783;-49
2023/01/26 05:40:59;;;;;;;31.73;29.83;;;20.50;45.70;;;;;;5106460;28;20449;-51
2023/01/26 05:43:26;;;;;;;31.80;30.10;;;20.50;45.70;;;;;;5091415;28;20541;-51
2023/01/26 05:45:53;;;;;;;31.67;29.93;;;20.50;45.60;;;;;;5091451;28;20529;-49
2023/01/26 05:48:20;;;;;;;33.00;31.20;;;20.60;45.80;;;;;;5091396;28;20896;-52
2023/01/26 05:50:47;;;;;;;33.57;31.67;;;20.60;45.80;;;;;;5094219;28;20484;-50
2023/01/26 05:53:14;;;;;;;32.57;30.77;;;20.60;45.80;;;;;;5111732;28;20446;-50
2023/01/26 05:55:40;;;;;;;33.50;31.50;;;20.60;45.80;;;;;;5111675;28;20846;-50
2023/01/26 05:58:09;;;;;;;32.03;30.03;;;20.70;46.30;;;;;;5111566;28;20468;-50
2023/01/26 06:00:35;;;;;;;34.90;32.80;;;20.70;46.50;;;;;;5109978;28;20541;-50
2023/01/26 06:03:02;;;;;;;33.60;31.50;;;20.70;46.80;;;;;;5093119;28;20541;-49
2023/01/26 06:05:29;;;;;;;33.17;31.17;;;20.70;47.20;;;;;;5100628;28;20525;-50
2023/01/26 06:07:56;;;;;;;34.20;31.70;;;20.70;47.70;;;;;;5109870;28;20564;-50
2023/01/26 06:10:22;;;;;;;32.77;30.70;;;20.80;48.20;;;;;;5094048;28;20910;-53
2023/01/26 06:12:49;;;;;;;34.47;32.47;;;20.80;48.10;;;;;;5095069;28;20443;-51
2023/01/26 06:15:17;;;;;;;36.93;34.50;;;20.80;47.90;;;;;;5094935;28;20566;-50
2023/01/26 06:17:44;;;;;;;34.87;32.60;;;20.90;47.70;;;;;;5094683;28;20548;-50
2023/01/26 06:20:13;;;;;;;34.00;31.90;;;20.90;47.40;;;;;;5094574;28;21006;-51
2023/01/26 06:22:40;;;;;;;32.77;30.87;;;21.00;47.20;;;;;;5094833;28;20446;-50
2023/01/26 06:25:07;;;;;;;31.63;29.70;;;21.00;47.00;;;;;;5094667;28;20448;-52
2023/01/26 06:27:34;;;;;;;31.03;29.30;;;21.00;46.70;;;;;;5094550;28;20961;-50
2023/01/26 06:30:01;;;;;;;33.93;31.90;;;21.00;46.50;;;;;;5094434;28;20473;-50
2023/01/26 06:32:29;;;;;;;33.40;31.10;;;21.10;46.40;;;;;;5094554;28;20533;-51
2023/01/26 06:34:56;;;;;;;32.87;30.80;;;21.10;46.20;;;;;;5094540;28;20482;-51
2023/01/26 06:37:23;;;;;;;32.83;30.80;;;21.10;46.10;;;;;;5094470;28;20567;-50
2023/01/26 06:39:50;;;;;;;33.77;31.67;;;21.10;45.90;;;;;;5094357;28;20437;-51
2023/01/26 06:42:16;;;;;;;31.43;29.50;;;21.10;45.80;;;;;;5094331;28;20446;-50
2023/01/26 06:44:43;;;;;;;32.80;30.80;;;21.10;45.70;;;;;;5094416;28;21011;-51
2023/01/26 06:47:11;;;;;;;32.90;30.70;;;21.10;45.60;;;;;;5094241;28;20563;-51
2023/01/26 06:49:39;;;;;;;33.40;31.47;;;21.10;45.50;;;;;;5094100;28;20511;-50
2023/01/26 06:52:22;;;;;;;33.17;31.10;;;21.20;45.50;;;;;;5094159;28;20525;-53
2023/01/26 06:54:49;;;;;;;31.87;29.97;;;21.10;45.30;;;;;;5094275;28;20839;-51
2023/01/26 06:57:16;;;;;;;31.30;29.50;;;21.20;45.30;;;;;;5093952;28;20462;-50
2023/01/26 06:59:43;;;;;;;34.47;32.30;;;21.20;45.20;;;;;;5093923;28;20533;-50
2023/01/26 07:02:17;;;;;;;35.37;33.27;;;21.20;45.20;;;;;;5093945;28;20869;-51
2023/01/26 07:04:45;;;;;;;31.83;30.23;;;21.20;45.10;;;;;;5093980;28;20439;-50
2023/01/26 07:07:12;;;;;;;31.70;29.90;;;21.20;45.00;;;;;;5093868;28;20545;-54
2023/01/26 07:09:39;;;;;;;33.30;31.20;;;21.20;45.00;;;;;;5093712;28;20473;-50
2023/01/26 07:12:06;;;;;;;33.83;31.63;;;21.20;44.90;;;;;;5093977;28;20443;-51
2023/01/26 07:14:33;;;;;;;31.07;29.33;;;21.20;44.80;;;;;;5093339;28;20489;-51
2023/01/26 07:17:00;;;;;;;32.80;31.00;;;21.20;44.80;;;;;;5093775;28;20473;-50
2023/01/26 07:19:29;;;;;;;32.40;30.63;;;21.30;44.80;;;;;;5093681;28;20556;-51
2023/01/26 07:21:57;;;;;;;33.37;31.53;;;21.30;44.70;;;;;;5093573;28;20454;-51
2023/01/26 07:24:24;;;;;;;32.50;30.80;;;21.30;44.60;;;;;;5093635;28;21011;-51
2023/01/26 07:26:51;;;;;;;31.77;29.97;;;21.30;44.60;;;;;;5093456;28;20466;-52
2023/01/26 07:29:18;;;;;;;32.50;30.70;;;21.30;44.50;;;;;;5093374;28;20541;-52
2023/01/26 07:31:44;;;;;;;30.60;29.00;;;21.30;44.50;;;;;;5093642;28;20534;-50
2023/01/26 07:34:12;;;;;;;33.67;31.40;;;21.40;44.50;;;;;;5093476;28;20533;-50
2023/01/26 07:36:39;;;;;;;33.57;31.77;;;21.40;44.40;;;;;;5093341;28;20466;-50
2023/01/26 07:39:07;;;;;;;31.87;30.00;;;21.40;44.30;;;;;;5093291;28;20817;-51
2023/01/26 07:41:34;;;;;;;34.00;32.10;;;21.40;44.30;;;;;;5093240;28;20537;-53
2023/01/26 07:44:01;;;;;;;32.20;30.57;;;21.50;44.30;;;;;;5093319;28;20873;-52
2023/01/26 07:46:27;;;;;;;34.30;32.40;;;21.50;44.20;;;;;;5093673;28;20550;-53
2023/01/26 07:48:55;;;;;;;32.47;30.60;;;21.50;44.20;;;;;;5093809;28;20884;-50
2023/01/26 07:51:22;;;;;;;32.40;30.70;;;21.50;44.10;;;;;;5093669;28;20823;-55
2023/01/26 07:53:49;;;;;;;30.77;29.27;;;21.40;44.00;;;;;;5093822;28;20449;-52
2023/01/26 07:56:19;;;;;;;31.27;29.57;;;21.40;44.00;;;;;;5093319;28;20482;-54
2023/01/26 07:58:50;;;;;;;31.37;29.57;;;21.50;44.00;;;;;;5093573;28;20446;-58
2023/01/26 08:01:16;;;;;;;32.37;30.50;;;21.40;43.90;;;;;;5093198;28;20434;-52
2023/01/26 08:03:44;;;;;;;32.33;29.97;;;21.50;43.90;;;;;;5092785;28;20451;-51
2023/01/26 08:06:13;;;;;;;33.20;31.40;;;21.50;43.90;;;;;;5092654;28;20462;-51
2023/01/26 08:08:40;;;;;;;32.40;30.70;;;21.50;43.90;;;;;;5092710;28;20541;-53
2023/01/26 08:11:09;;;;;;;32.20;30.60;;;21.50;43.80;;;;;;5092421;28;20499;-50
2023/01/26 08:13:37;;;;;;;32.57;30.97;;;21.50;43.80;;;;;;5092694;28;20453;-50
2023/01/26 08:16:08;;;;;;;32.80;30.90;;;21.50;43.70;;;;;;5092520;28;20478;-53
2023/01/26 08:18:34;;;;;;;31.67;30.07;;;21.50;43.60;;;;;;5092669;28;20817;-51
2023/01/26 08:21:01;;;;;;;31.83;30.23;;;21.50;43.70;;;;;;5092325;28;20443;-50
2023/01/26 08:23:28;;;;;;;32.57;30.57;;;21.50;43.70;;;;;;5092391;28;20541;-52
2023/01/26 08:25:55;;;;;;;32.57;30.90;;;21.50;43.60;;;;;;5091564;28;20632;-53
2023/01/26 08:28:22;;;;;;;32.40;30.70;;;21.50;43.60;;;;;;5092502;28;20445;-50
2023/01/26 08:30:50;;;;;;;31.63;30.10;;;21.50;43.60;;;;;;5092090;28;20529;-52
2023/01/26 08:33:17;;;;;;;32.13;30.50;;;21.50;43.60;;;;;;5092266;28;20820;-51
2023/01/26 08:35:43;;;;;;;31.30;29.70;;;21.50;43.50;;;;;;5092182;28;20482;-50
2023/01/26 08:38:10;;;;;;;31.77;30.17;;;21.50;43.50;;;;;;5092287;28;20930;-50
2023/01/26 08:40:37;;;;;;;32.87;31.07;;;21.50;43.50;;;;;;5092046;28;20542;-51
2023/01/26 08:43:04;;;;;;;33.00;31.30;;;21.50;43.50;;;;;;5092161;28;20940;-50
2023/01/26 08:45:32;;;;;;;31.77;30.07;;;21.50;43.50;;;;;;5092173;28;20535;-53
2023/01/26 08:48:00;;;;;;;32.33;30.63;;;21.50;43.50;;;;;;5091950;28;20964;-53
2023/01/26 08:50:27;;;;;;;31.47;29.87;;;21.50;43.40;;;;;;5091849;28;20528;-52
2023/01/26 08:52:56;;;;;;;32.50;30.70;;;21.50;43.40;;;;;;5092003;28;20547;-51
2023/01/26 08:55:23;;;;;;;31.40;29.80;;;21.60;43.40;;;;;;5091957;28;20555;-54
2023/01/26 08:57:53;;;;;;;31.57;29.87;;;21.60;43.40;;;;;;5091862;28;20466;-51
2023/01/26 09:00:21;;;;;;;32.10;30.50;;;21.60;43.40;;;;;;5091679;28;20443;-50
2023/01/26 09:02:49;;;;;;;33.10;31.40;;;21.60;43.40;;;;;;5091822;28;20947;-50
2023/01/26 09:05:17;;;;;;;31.00;29.30;;;21.60;43.30;;;;;;5091802;28;20454;-52
2023/01/26 09:07:44;;;;;;;33.10;31.27;;;21.60;43.30;;;;;;5091660;28;20458;-50
2023/01/26 09:10:12;;;;;;;32.47;30.77;;;21.60;43.30;;;;;;5091581;28;20544;-50
2023/01/26 09:12:38;;;;;;;31.43;29.80;;;21.60;43.30;;;;;;5091680;28;20453;-50
2023/01/26 09:15:07;;;;;;;32.10;30.40;;;21.60;43.20;;;;;;5091720;28;20837;-50
2023/01/26 09:17:33;;;;;;;32.20;30.50;;;21.60;43.20;;;;;;5091783;28;20462;-51
2023/01/26 09:20:00;;;;;;;33.43;31.80;;;21.60;43.20;;;;;;5091598;28;20863;-50
2023/01/26 09:22:29;;;;;;;31.77;30.10;;;21.60;43.20;;;;;;5091705;28;20537;-54
2023/01/26 09:24:56;;;;;;;32.10;30.40;;;21.60;43.10;;;;;;5091748;28;20443;-52
2023/01/26 09:27:23;;;;;;;31.50;29.90;;;21.60;43.10;;;;;;5091599;28;20466;-51
2023/01/26 09:29:50;;;;;;;31.73;30.07;;;21.60;43.10;;;;;;5091364;28;20451;-50
2023/01/26 09:32:16;;;;;;;31.47;29.83;;;21.60;43.10;;;;;;5091637;28;20529;-50
2023/01/26 09:34:43;;;;;;;30.60;29.00;;;21.60;43.00;;;;;;5091498;28;20545;-50
2023/01/26 09:37:10;;;;;;;29.60;28.13;;;21.60;43.00;;;;;;5093884;28;20550;-52
2023/01/26 09:39:38;;;;;;;29.87;28.37;;;21.60;43.00;;;;;;5095379;28;20935;-51
2023/01/26 09:42:22;;;;;;;32.80;31.20;;;21.60;42.90;;;;;;5095561;28;20842;-52
2023/01/26 09:44:55;;;;;;;32.60;30.93;;;21.60;42.90;;;;;;5095640;28;20808;-51
2023/01/26 09:47:31;;;;;;;31.93;30.50;;;21.60;42.90;;;;;;5095484;28;20466;-51
2023/01/26 09:50:02;;;;;;;34.20;32.50;;;21.60;42.90;;;;;;5095265;28;20440;-50
2023/01/26 09:52:32;;;;;;;32.20;30.70;;;21.60;42.90;;;;;;5095382;28;20446;-51
2023/01/26 09:55:03;;;;;;;33.20;31.50;;;21.60;43.00;;;;;;5095532;28;20478;-54
2023/01/26 09:57:36;;;;;;;32.80;31.20;;;21.60;42.90;;;;;;5095393;28;20465;-53
2023/01/26 10:00:10;;;;;;;32.40;30.70;;;21.60;42.90;;;;;;5095188;28;20442;-52
2023/01/26 10:02:55;;;;;;;32.13;30.63;;;21.60;42.90;;;;;;5095110;28;20461;-52
2023/01/26 10:05:32;;;;;;;31.60;30.00;;;21.60;42.90;;;;;;5095178;28;20434;-50
2023/01/26 10:07:59;;;;;;;32.07;30.57;;;21.60;42.90;;;;;;5094974;28;20560;-51
2023/01/26 10:10:34;;;;;;;32.80;31.03;;;21.60;42.90;;;;;;5094923;28;20532;-51
2023/01/26 10:13:02;;;;;;;33.50;31.80;;;21.60;42.80;;;;;;5095176;28;20446;-54
2023/01/26 10:15:31;;;;;;;31.83;30.33;;;21.60;42.80;;;;;;5094946;28;20508;-53
2023/01/26 10:18:02;;;;;;;33.03;31.33;;;21.60;42.90;;;;;;5094909;28;20828;-51
2023/01/26 10:20:32;;;;;;;32.20;30.70;;;21.60;42.80;;;;;;5094685;28;20478;-52
2023/01/26 10:23:04;;;;;;;31.47;29.90;;;21.60;42.80;;;;;;5094784;28;20442;-52
2023/01/26 10:25:35;;;;;;;32.33;30.83;;;21.60;42.80;;;;;;5094930;28;20541;-51
2023/01/26 10:28:11;;;;;;;32.83;31.23;;;21.60;42.80;;;;;;5094721;28;20465;-52
2023/01/26 10:30:40;;;;;;;31.40;29.77;;;21.60;42.80;;;;;;5094475;28;20453;-51
2023/01/26 10:33:15;;;;;;;31.20;29.60;;;21.60;42.70;;;;;;5094665;28;20449;-50
2023/01/26 10:35:42;;;;;;;32.90;31.20;;;21.60;42.60;;;;;;5094471;28;20482;-53
2023/01/26 10:38:26;;;;;;;31.93;30.33;;;21.70;42.80;;;;;;5094462;28;20559;-54
2023/01/26 10:40:54;;;;;;;31.17;29.57;;;21.70;42.80;;;;;;5094410;28;20802;-50
2023/01/26 10:43:21;;;;;;;31.77;30.17;;;21.70;42.70;;;;;;5094344;28;20441;-50
2023/01/26 10:45:48;;;;;;;31.00;29.40;;;21.70;42.70;;;;;;5094356;28;20525;-53
2023/01/26 10:48:18;;;;;;;30.97;29.47;;;21.70;42.70;;;;;;5093506;28;20529;-51
2023/01/26 10:50:45;;;;;;;30.67;29.17;;;21.70;42.60;;;;;;5094035;28;20810;-50
2023/01/26 10:53:17;;;;;;;31.83;30.23;;;21.70;42.70;;;;;;5094364;28;20444;-50
2023/01/26 10:55:57;;;;;;;30.67;29.17;;;21.70;42.60;;;;;;5094170;28;20482;-53
2023/01/26 10:58:47;;;;;;;31.20;29.67;;;21.60;42.60;;;;;;5094219;28;20442;-51
2023/01/26 11:01:15;;;;;;;30.23;28.80;;;21.70;42.50;;;;;;5094262;28;20448;-52
2023/01/26 11:03:42;;;;;;;29.60;28.10;;;21.70;42.60;;;;;;5093911;28;20458;-51
2023/01/26 11:06:15;;;;;;;29.80;28.30;;;21.70;42.60;;;;;;5093971;28;20468;-50
2023/01/26 11:08:43;;;;;;;30.83;29.43;;;21.70;42.50;;;;;;5094047;28;20451;-51
2023/01/26 11:11:25;;;;;;;28.73;27.33;;;21.60;42.40;;;;;;5093738;28;20461;-54
2023/01/26 11:14:11;;;;;;;31.30;29.80;;;21.70;42.60;;;;;;5094057;28;20450;-51
2023/01/26 11:16:38;;;;;;;29.77;28.40;;;21.70;42.50;;;;;;5094270;28;20490;-53
2023/01/26 11:19:12;;;;;;;31.70;29.97;;;21.70;42.50;;;;;;5093473;28;20439;-55
2023/01/26 11:21:44;;;;;;;30.60;29.20;;;21.60;42.40;;;;;;5093662;28;20446;-53
2023/01/26 11:24:16;;;;;;;30.50;28.90;;;21.70;42.50;;;;;;5093790;28;20470;-55
2023/01/26 11:27:12;;;;;;;31.60;29.90;;;21.60;42.40;;;;;;5093573;28;20458;-51
2023/01/26 11:30:01;;;;;;;29.83;28.33;;;21.60;42.30;;;;;;5093415;28;20811;-55
2023/01/26 11:32:36;;;;;;;31.43;29.83;;;21.60;42.40;;;;;;5093625;28;20452;-52
2023/01/26 11:35:14;;;;;;;29.27;27.80;;;21.60;42.40;;;;;;5093427;28;20441;-51
2023/01/26 11:37:45;;;;;;;29.87;28.43;;;21.60;42.40;;;;;;5093372;28;20468;-51
2023/01/26 11:40:25;;;;;;;29.90;28.40;;;21.60;42.40;;;;;;5093229;28;20453;-52
2023/01/26 11:43:17;;;;;;;29.10;27.70;;;21.60;42.30;;;;;;5093414;28;20446;-52
2023/01/26 11:46:03;;;;;;;28.50;27.00;;;21.60;42.40;;;;;;5093273;28;20450;-55
2023/01/26 11:48:39;;;;;;;29.53;28.00;;;21.60;42.40;;;;;;5093317;28;20443;-52
2023/01/26 11:51:16;;;;;;;29.00;27.50;;;21.60;42.30;;;;;;5092897;28;20448;-53
2023/01/26 11:54:04;;;;;;;29.93;28.43;;;21.60;42.40;;;;;;5093140;28;20454;-50
2023/01/26 11:56:44;;;;;;;28.63;27.23;;;21.60;42.40;;;;;;5093010;28;20486;-52
2023/01/26 11:59:15;;;;;;;30.20;28.70;;;21.60;42.40;;;;;;5092951;28;20804;-55
2023/01/26 12:01:49;;;;;;;29.30;27.90;;;21.60;42.40;;;;;;5092832;28;20810;-53
2023/01/26 12:04:19;;;;;;;29.03;27.63;;;21.60;42.40;;;;;;5092759;28;20461;-54
2023/01/26 12:06:52;;;;;;;28.83;27.43;;;21.50;42.30;;;;;;5092827;28;20466;-52
2023/01/26 12:09:23;;;;;;;29.30;27.90;;;21.60;42.40;;;;;;5092718;28;20443;-50
2023/01/26 12:11:58;;;;;;;27.97;26.67;;;21.50;42.30;;;;;;5092654;28;20940;-50
2023/01/26 12:14:29;;;;;;;30.20;28.70;;;21.60;42.40;;;;;;5092687;28;20449;-52
2023/01/26 12:17:25;;;;;;;29.53;28.13;;;21.60;42.40;;;;;;5092455;28;20517;-54
2023/01/26 12:20:03;;;;;;;31.90;30.30;;;21.60;42.40;;;;;;5092348;28;20452;-50
2023/01/26 12:22:33;;;;;;;30.27;28.87;;;21.60;42.90;;;;;;5092524;28;20812;-49
2023/01/26 12:25:07;;;;;;;30.20;28.80;;;21.60;42.30;;;;;;5092448;28;20442;-51
2023/01/26 12:27:40;;;;;;;29.60;28.20;;;21.60;42.30;;;;;;5092312;28;20458;-52
2023/01/26 12:30:26;;;;;;;29.87;28.47;;;21.60;42.40;;;;;;5092250;28;20446;-51
2023/01/26 12:32:55;;;;;;;29.93;28.73;;;21.60;42.40;;;;;;5092473;28;20806;-50
2023/01/26 12:35:36;;;;;;;30.47;29.07;;;21.60;42.30;;;;;;5092238;28;20805;-50
2023/01/26 12:38:10;;;;;;;29.53;28.13;;;21.60;42.30;;;;;;5092231;28;20468;-52
2023/01/26 12:40:43;;;;;;;31.30;29.70;;;21.60;42.30;;;;;;5092071;28;20441;-51
2023/01/26 12:43:23;;;;;;;30.93;29.53;;;21.60;42.30;;;;;;5092248;28;20450;-52
2023/01/26 12:45:52;;;;;;;30.43;29.00;;;21.60;42.30;;;;;;5092180;28;20485;-51
2023/01/26 12:48:26;;;;;;;30.50;28.90;;;21.60;42.30;;;;;;5092006;28;20443;-50
2023/01/26 12:51:00;;;;;;;29.27;27.87;;;21.60;42.30;;;;;;5091853;28;20953;-50
2023/01/26 12:53:32;;;;;;;30.33;28.80;;;21.60;42.20;;;;;;5092086;28;20457;-52
2023/01/26 12:56:07;;;;;;;29.73;28.33;;;21.60;42.30;;;;;;5091812;28;20477;-51
2023/01/26 12:58:37;;;;;;;30.53;29.13;;;21.60;42.20;;;;;;5091965;28;20446;-53
2023/01/26 13:01:07;;;;;;;28.60;27.20;;;21.60;42.20;;;;;;5091812;28;20442;-51
2023/01/26 13:03:40;;;;;;;28.40;27.10;;;21.60;42.20;;;;;;5091750;28;20482;-51
2023/01/26 13:06:19;;;;;;;28.10;26.73;;;21.60;42.30;;;;;;5091848;28;20549;-50
2023/01/26 13:08:53;;;;;;;28.20;26.80;;;21.60;42.20;;;;;;5091652;28;20809;-54
2023/01/26 13:11:43;;;;;;;27.40;26.00;;;21.60;42.20;;;;;;5091262;28;20443;-52
2023/01/26 13:14:59;;;;;;;28.30;27.10;;;21.60;42.20;;;;;;5091875;28;20525;-51
2023/01/26 13:17:49;;;;;;;27.90;26.60;;;21.60;42.20;;;;;;5091542;28;20587;-52
2023/01/26 13:20:37;;;;;;;27.80;26.50;;;21.60;42.20;;;;;;5091537;28;20787;-51
2023/01/26 13:23:36;;;;;;;26.30;25.10;;;21.60;42.20;;;;;;5088431;28;20454;-51
2023/01/26 13:26:15;;;;;;;27.03;25.73;;;21.50;42.10;;;;;;5091568;28;20446;-50
2023/01/26 13:28:42;;;;;;;27.70;26.40;;;21.60;42.20;;;;;;5091683;28;20863;-51
2023/01/26 13:31:10;;;;;;;27.50;26.10;;;21.60;42.20;;;;;;5091341;28;20442;-52